createdAt,value
2022-09-07T00:00:51.788Z,26.17
2022-09-07T00:03:19.922Z,26.15
2022-09-07T00:05:49.458Z,26.12
2022-09-07T00:08:18.688Z,26.11
2022-09-07T00:11:00.593Z,26.09
2022-09-07T00:13:30.451Z,26.06
2022-09-07T00:15:58.240Z,26.03
2022-09-07T00:18:26.067Z,26.03
2022-09-07T00:21:01.706Z,26.10
2022-09-07T00:23:30.510Z,26.13
2022-09-07T00:26:13.958Z,26.14
2022-09-07T00:28:42.271Z,26.14
2022-09-07T00:31:28.683Z,26.13
2022-09-07T00:33:59.302Z,26.16
2022-09-07T00:36:27.401Z,26.17
2022-09-07T00:38:54.878Z,26.16
2022-09-07T00:41:23.884Z,26.16
2022-09-07T00:43:59.864Z,26.16
2022-09-07T00:46:34.291Z,26.15
2022-09-07T00:49:24.242Z,26.13
2022-09-07T00:51:57.958Z,26.09
2022-09-07T00:54:34.352Z,26.08
2022-09-07T00:57:01.721Z,26.06
2022-09-07T00:59:41.902Z,26.02
2022-09-07T01:02:09.683Z,26.00
2022-09-07T01:04:37.625Z,25.97
2022-09-07T01:07:05.997Z,25.94
2022-09-07T01:09:33.669Z,25.92
2022-09-07T01:12:02.510Z,25.91
2022-09-07T01:14:33.631Z,25.88
2022-09-07T01:17:03.510Z,25.88
2022-09-07T01:19:51.834Z,25.87
2022-09-07T01:22:19.072Z,25.87
2022-09-07T01:25:04.703Z,25.87
2022-09-07T01:27:49.992Z,25.89
2022-09-07T01:30:19.709Z,25.87
2022-09-07T01:33:11.035Z,25.84
2022-09-07T01:36:06.079Z,25.81
2022-09-07T01:38:48.015Z,25.76
2022-09-07T01:41:39.056Z,25.73
2022-09-07T01:44:25.316Z,25.69
2022-09-07T01:47:04.667Z,25.65
2022-09-07T01:49:51.475Z,25.63
2022-09-07T01:52:38.513Z,25.64
2022-09-07T01:55:16.057Z,25.66
2022-09-07T01:57:49.094Z,25.67
2022-09-07T02:00:19.835Z,25.69
2022-09-07T02:03:07.985Z,25.69
2022-09-07T02:05:43.381Z,25.68
2022-09-07T02:08:15.239Z,25.62
2022-09-07T02:10:50.922Z,25.56
2022-09-07T02:13:26.952Z,25.54
2022-09-07T02:16:02.004Z,25.50
2022-09-07T02:18:35.478Z,25.45
2022-09-07T02:21:04.552Z,25.43
2022-09-07T02:23:41.553Z,25.43
2022-09-07T02:26:17.801Z,25.41
2022-09-07T02:28:45.228Z,25.38
2022-09-07T02:31:12.471Z,25.35
2022-09-07T02:33:39.871Z,25.32
2022-09-07T02:36:07.590Z,25.32
2022-09-07T02:38:35.995Z,25.32
2022-09-07T02:41:05.384Z,25.34
2022-09-07T02:43:33.491Z,25.36
2022-09-07T02:46:06.776Z,25.36
2022-09-07T02:48:57.478Z,25.38
2022-09-07T02:51:56.059Z,25.36
2022-09-07T02:54:34.166Z,25.34
2022-09-07T02:57:28.304Z,25.32
2022-09-07T03:00:07.737Z,25.30
2022-09-07T03:02:53.834Z,25.26
2022-09-07T03:05:39.209Z,25.24
2022-09-07T03:08:17.349Z,25.26
2022-09-07T03:10:45.288Z,25.23
2022-09-07T03:13:33.177Z,25.19
2022-09-07T03:16:00.410Z,25.15
2022-09-07T03:18:28.675Z,25.14
2022-09-07T03:20:56.577Z,25.17
2022-09-07T03:23:23.881Z,25.18
2022-09-07T03:25:51.181Z,25.18
2022-09-07T03:28:18.467Z,25.19
2022-09-07T03:30:47.630Z,25.20
2022-09-07T03:33:18.958Z,25.19
2022-09-07T03:35:56.692Z,25.19
2022-09-07T03:38:24.071Z,25.21
2022-09-07T03:40:59.737Z,25.19
2022-09-07T03:43:27.424Z,25.16
2022-09-07T03:46:02.335Z,25.14
2022-09-07T03:48:33.965Z,25.11
2022-09-07T03:51:07.226Z,25.07
2022-09-07T03:53:37.076Z,25.08
2022-09-07T03:56:07.471Z,25.03
2022-09-07T03:58:35.680Z,24.96
2022-09-07T04:01:11.446Z,24.90
2022-09-07T04:03:39.883Z,24.89
2022-09-07T04:06:07.385Z,24.87
2022-09-07T04:08:36.896Z,24.86
2022-09-07T04:11:06.228Z,24.87
2022-09-07T04:13:35.589Z,24.84
2022-09-07T04:16:21.576Z,24.83
2022-09-07T04:18:50.599Z,24.82
2022-09-07T04:21:23.202Z,24.79
2022-09-07T04:23:50.876Z,24.82
2022-09-07T04:26:26.952Z,24.84
2022-09-07T04:28:54.741Z,24.89
2022-09-07T04:31:22.903Z,24.93
2022-09-07T04:33:51.755Z,24.97
2022-09-07T04:36:20.484Z,25.01
2022-09-07T04:38:48.385Z,25.02
2022-09-07T04:41:18.142Z,25.05
2022-09-07T04:43:46.926Z,25.07
2022-09-07T04:46:24.856Z,25.09
2022-09-07T04:48:54.690Z,25.13
2022-09-07T04:51:23.558Z,25.17
2022-09-07T04:53:52.326Z,25.23
2022-09-07T04:56:20.830Z,25.32
2022-09-07T04:58:48.777Z,25.41
2022-09-07T05:01:20.551Z,25.55
2022-09-07T05:03:49.007Z,25.73
2022-09-07T05:06:18.363Z,25.94
2022-09-07T05:08:50.965Z,26.13
2022-09-07T05:11:21.211Z,26.37
2022-09-07T05:13:50.450Z,26.62
2022-09-07T05:16:23.639Z,26.90
2022-09-07T05:18:52.769Z,27.22
2022-09-07T05:21:25.607Z,27.51
2022-09-07T05:23:54.854Z,27.69
2022-09-07T05:26:24.622Z,27.79
2022-09-07T05:28:52.713Z,27.92
2022-09-07T05:31:22.097Z,28.08
2022-09-07T05:36:41.914Z,28.74
2022-09-07T05:39:09.604Z,28.88
2022-09-07T05:41:36.886Z,29.31
2022-09-07T05:46:52.917Z,30.18
2022-09-07T05:49:20.061Z,30.56
2022-09-07T05:51:48.579Z,30.67
2022-09-07T05:54:15.761Z,31.21
2022-09-07T05:56:44.002Z,31.37
2022-09-07T05:59:11.298Z,31.48
2022-09-07T06:01:38.674Z,32.21
2022-09-07T06:04:06.102Z,32.65
2022-09-07T06:06:38.533Z,33.17
2022-09-07T06:09:06.970Z,33.63
2022-09-07T06:11:34.136Z,34.08
2022-09-07T06:14:01.398Z,33.81
2022-09-07T06:16:29.194Z,33.45
2022-09-07T06:18:56.409Z,33.80
2022-09-07T06:21:24.359Z,34.16
2022-09-07T06:23:52.026Z,34.16
2022-09-07T06:26:19.986Z,34.98
2022-09-07T06:28:52.140Z,35.50
2022-09-07T06:31:23.471Z,35.65
2022-09-07T06:33:52.016Z,36.06
2022-09-07T06:36:21.365Z,36.06
2022-09-07T06:38:49.732Z,35.99
2022-09-07T06:44:09.357Z,35.27
2022-09-07T06:49:24.630Z,35.64
2022-09-07T06:51:52.155Z,35.79
2022-09-07T06:57:09.667Z,36.32
2022-09-07T06:59:37.718Z,36.04
2022-09-07T07:02:06.069Z,35.75
2022-09-07T07:04:39.455Z,35.12
2022-09-07T07:07:12.014Z,35.51
2022-09-07T07:09:39.379Z,35.40
2022-09-07T07:12:06.850Z,34.89
2022-09-07T07:14:37.241Z,34.19
2022-09-07T07:17:07.109Z,33.64
2022-09-07T07:19:36.758Z,33.20
2022-09-07T07:22:29.509Z,32.79
2022-09-07T07:24:51.175Z,32.56
2022-09-07T07:27:18.274Z,32.12
2022-09-07T07:29:46.328Z,32.11
2022-09-07T07:32:13.511Z,32.12
2022-09-07T07:34:40.847Z,32.07
2022-09-07T07:37:08.068Z,32.34
2022-09-07T07:42:22.646Z,31.86
2022-09-07T07:44:49.992Z,31.76
2022-09-07T07:47:37.093Z,31.66
2022-09-07T07:53:41.074Z,31.68
2022-09-07T07:55:43.613Z,31.84
2022-09-07T07:58:11.274Z,32.08
2022-09-07T08:00:53.834Z,31.70
2022-09-07T08:03:22.954Z,31.09
2022-09-07T08:05:50.062Z,30.66
2022-09-07T08:08:17.468Z,30.61
2022-09-07T08:10:46.196Z,30.73
2022-09-07T08:13:14.406Z,30.51
2022-09-07T08:15:47.737Z,30.54
2022-09-07T08:18:17.258Z,30.55
2022-09-07T08:20:44.764Z,30.54
2022-09-07T08:23:12.025Z,30.20
2022-09-07T08:25:39.637Z,30.34
2022-09-07T08:28:07.032Z,30.04
2022-09-07T08:30:34.091Z,29.89
2022-09-07T08:33:01.364Z,29.55
2022-09-07T08:35:28.445Z,29.26
2022-09-07T08:37:55.520Z,29.32
2022-09-07T08:40:22.673Z,29.26
2022-09-07T08:43:03.484Z,29.18
2022-09-07T08:45:51.929Z,29.20
2022-09-07T08:48:29.430Z,29.39
2022-09-07T08:51:10.086Z,29.31
2022-09-07T08:53:44.890Z,29.23
2022-09-07T08:56:24.491Z,29.11
2022-09-07T08:58:56.119Z,29.08
2022-09-07T09:01:36.702Z,29.17
2022-09-07T09:04:17.893Z,29.43
2022-09-07T09:06:54.355Z,29.66
2022-09-07T09:09:51.985Z,29.68
2022-09-07T09:12:40.673Z,29.69
2022-09-07T09:15:21.692Z,29.36
2022-09-07T09:18:27.297Z,29.08
2022-09-07T09:20:57.050Z,29.34
2022-09-07T09:23:40.730Z,29.43
2022-09-07T09:26:14.222Z,29.48
2022-09-07T09:28:41.869Z,29.53
2022-09-07T09:31:34.476Z,29.51
2022-09-07T09:34:14.782Z,29.49
2022-09-07T09:37:02.377Z,29.37
2022-09-07T09:39:34.682Z,29.50
2022-09-07T09:42:26.543Z,29.48
2022-09-07T09:44:54.278Z,29.24
2022-09-07T09:47:32.843Z,29.33
2022-09-07T09:50:06.923Z,29.45
2022-09-07T09:52:47.708Z,29.73
2022-09-07T09:55:35.501Z,29.67
2022-09-07T10:06:21.232Z,29.84
2022-09-07T10:09:02.618Z,29.69
2022-09-07T10:14:34.368Z,29.90
2022-09-07T10:17:10.453Z,30.11
2022-09-07T10:19:41.406Z,30.23
2022-09-07T10:22:34.746Z,30.17
2022-09-07T10:25:04.407Z,30.12
2022-09-07T10:27:38.997Z,30.08
2022-09-07T10:30:17.005Z,29.98
2022-09-07T10:33:06.744Z,29.90
2022-09-07T10:35:40.575Z,30.02
2022-09-07T10:38:19.886Z,29.85
2022-09-07T10:41:10.509Z,30.00
2022-09-07T10:43:46.353Z,29.99
2022-09-07T10:49:29.886Z,29.79
2022-09-07T10:52:18.531Z,29.56
2022-09-07T10:55:26.627Z,29.33
2022-09-07T11:01:51.426Z,29.15
2022-09-07T11:04:18.687Z,29.07
2022-09-07T11:07:03.311Z,29.31
2022-09-07T11:09:48.431Z,29.38
2022-09-07T11:12:22.057Z,29.42
2022-09-07T11:15:14.043Z,29.58
2022-09-07T11:17:52.826Z,29.55
2022-09-07T11:20:55.206Z,29.40
2022-09-07T11:23:40.314Z,29.37
2022-09-07T11:26:13.706Z,29.40
2022-09-07T11:28:46.290Z,29.27
2022-09-07T11:31:38.150Z,29.21
2022-09-07T11:34:26.372Z,29.25
2022-09-07T11:37:18.086Z,29.15
2022-09-07T11:40:12.776Z,29.25
2022-09-07T11:43:03.109Z,29.29
2022-09-07T11:45:52.118Z,29.47
2022-09-07T11:48:30.408Z,29.65
2022-09-07T11:51:21.842Z,29.78
2022-09-07T11:53:57.583Z,29.75
2022-09-07T11:56:37.166Z,29.57
2022-09-07T11:59:27.158Z,29.67
2022-09-07T12:02:36.698Z,29.78
2022-09-07T12:05:18.146Z,29.61
2022-09-07T12:07:48.270Z,29.53
2022-09-07T12:10:36.410Z,29.65
2022-09-07T12:13:40.994Z,29.62
2022-09-07T12:16:11.090Z,29.58
2022-09-07T12:19:10.371Z,29.94
2022-09-07T12:21:51.415Z,29.96
2022-09-07T12:24:33.766Z,29.97
2022-09-07T12:27:02.923Z,29.68
2022-09-07T12:29:31.626Z,29.60
2022-09-07T12:32:53.756Z,29.59
2022-09-07T12:34:58.058Z,29.35
2022-09-07T12:37:37.647Z,29.30
2022-09-07T12:40:33.446Z,29.38
2022-09-07T12:43:13.057Z,29.40
2022-09-07T12:45:40.325Z,29.41
2022-09-07T12:48:16.711Z,29.39
2022-09-07T12:51:10.438Z,29.20
2022-09-07T12:53:47.262Z,29.32
2022-09-07T12:56:29.739Z,29.43
2022-09-07T12:59:17.323Z,29.29
2022-09-07T13:02:04.146Z,29.23
2022-09-07T13:04:48.734Z,29.13
2022-09-07T13:07:36.683Z,29.16
2022-09-07T13:10:24.987Z,29.30
2022-09-07T13:12:53.385Z,29.26
2022-09-07T13:15:41.834Z,29.08
2022-09-07T13:18:29.046Z,28.97
2022-09-07T13:21:08.468Z,29.04
2022-09-07T13:23:40.727Z,29.04
2022-09-07T13:26:11.160Z,29.12
2022-09-07T13:29:02.898Z,29.11
2022-09-07T13:31:42.282Z,29.15
2022-09-07T13:34:32.556Z,28.98
2022-09-07T13:37:02.069Z,29.12
2022-09-07T13:39:32.306Z,29.12
2022-09-07T13:42:00.913Z,28.97
2022-09-07T13:44:32.603Z,28.90
2022-09-07T13:47:18.302Z,28.71
2022-09-07T13:50:13.734Z,28.68
2022-09-07T13:52:52.927Z,28.72
2022-09-07T13:55:34.260Z,28.80
2022-09-07T13:58:11.928Z,28.86
2022-09-07T14:01:10.176Z,28.82
2022-09-07T14:03:43.864Z,28.92
2022-09-07T14:06:32.315Z,28.81
2022-09-07T14:09:05.169Z,28.84
2022-09-07T14:11:52.982Z,28.78
2022-09-07T14:14:22.937Z,28.70
2022-09-07T14:17:01.841Z,28.63
2022-09-07T14:19:42.710Z,28.66
2022-09-07T14:22:19.833Z,28.61
2022-09-07T14:24:53.068Z,28.51
2022-09-07T14:27:31.787Z,28.37
2022-09-07T14:30:22.711Z,28.24
2022-09-07T14:32:52.774Z,28.20
2022-09-07T14:35:22.794Z,28.22
2022-09-07T14:37:51.035Z,28.25
2022-09-07T14:40:22.186Z,28.32
2022-09-07T14:42:51.138Z,28.29
2022-09-07T14:45:24.281Z,28.34
2022-09-07T14:47:54.164Z,28.37
2022-09-07T14:50:26.776Z,28.40
2022-09-07T14:55:44.859Z,28.37
2022-09-07T14:58:14.884Z,28.32
2022-09-07T15:00:45.967Z,28.39
2022-09-07T15:03:33.190Z,28.45
2022-09-07T15:06:02.101Z,28.50
2022-09-07T15:08:43.643Z,28.53
2022-09-07T15:11:35.400Z,28.60
2022-09-07T15:14:10.570Z,28.54
2022-09-07T15:16:44.547Z,28.63
2022-09-07T15:19:18.733Z,28.70
2022-09-07T15:21:46.058Z,28.78
2022-09-07T15:24:13.216Z,28.92
2022-09-07T15:29:32.985Z,29.17
2022-09-07T15:32:04.504Z,29.27
2022-09-07T15:34:33.208Z,29.27
2022-09-07T15:37:02.418Z,29.21
2022-09-07T15:39:31.277Z,29.04
2022-09-07T15:42:00.798Z,28.96
2022-09-07T15:44:46.493Z,29.02
2022-09-07T15:50:00.780Z,28.89
2022-09-07T15:52:28.134Z,28.89
2022-09-07T15:54:58.564Z,28.80
2022-09-07T16:00:13.474Z,28.68
2022-09-07T16:05:31.150Z,28.76
2022-09-07T16:10:53.481Z,28.82
2022-09-07T16:13:24.215Z,28.84
2022-09-07T16:15:51.909Z,28.67
2022-09-07T16:18:19.425Z,28.57
2022-09-07T16:20:47.528Z,28.45
2022-09-07T16:23:19.295Z,28.38
2022-09-07T16:26:00.712Z,28.35
2022-09-07T16:28:29.096Z,28.36
2022-09-07T16:30:56.808Z,28.39
2022-09-07T16:33:31.487Z,28.34
2022-09-07T16:36:07.346Z,28.26
2022-09-07T16:38:50.901Z,28.19
2022-09-07T16:41:29.509Z,28.09
2022-09-07T16:43:56.854Z,27.99
2022-09-07T16:46:26.935Z,27.95
2022-09-07T16:48:54.808Z,27.88
2022-09-07T16:51:23.367Z,27.81
2022-09-07T16:53:52.321Z,27.85
2022-09-07T16:56:21.871Z,27.81
2022-09-07T16:58:56.027Z,27.75
2022-09-07T17:01:28.800Z,27.71
2022-09-07T17:03:56.482Z,27.70
2022-09-07T17:06:37.745Z,27.60
2022-09-07T17:09:05.257Z,27.60
2022-09-07T17:11:34.707Z,27.54
2022-09-07T17:14:02.674Z,27.46
2022-09-07T17:16:35.466Z,27.44
2022-09-07T17:21:51.991Z,27.35
2022-09-07T17:24:19.706Z,27.33
2022-09-07T17:26:47.969Z,27.29
2022-09-07T17:29:15.513Z,27.26
2022-09-07T17:34:30.991Z,27.17
2022-09-07T17:37:00.517Z,27.16
2022-09-07T17:39:28.363Z,27.17
2022-09-07T17:41:55.550Z,27.13
2022-09-07T17:44:23.680Z,27.12
2022-09-07T17:46:52.275Z,27.15
2022-09-07T17:49:19.640Z,27.16
2022-09-07T17:51:47.089Z,27.19
2022-09-07T17:54:16.883Z,27.18
2022-09-07T17:56:44.791Z,27.18
2022-09-07T18:01:59.878Z,27.13
2022-09-07T18:04:36.354Z,27.08
2022-09-07T18:07:03.706Z,27.05
2022-09-07T18:09:30.955Z,27.04
2022-09-07T18:11:58.429Z,27.04
2022-09-07T18:14:25.716Z,27.03
2022-09-07T18:16:53.200Z,27.00
2022-09-07T18:19:20.521Z,27.01
2022-09-07T18:21:48.639Z,27.00
2022-09-07T18:24:21.970Z,26.98
2022-09-07T18:26:52.281Z,26.98
2022-09-07T18:29:29.361Z,26.98
2022-09-07T18:31:59.409Z,26.99
2022-09-07T18:34:26.644Z,27.01
2022-09-07T18:36:55.034Z,27.02
2022-09-07T18:39:23.020Z,27.01
2022-09-07T18:41:50.268Z,27.02
2022-09-07T18:47:08.897Z,27.01
2022-09-07T18:49:36.257Z,27.00
2022-09-07T18:54:52.480Z,26.92
2022-09-07T18:57:19.697Z,26.91
2022-09-07T18:59:47.083Z,26.90
2022-09-07T19:02:14.543Z,26.94
2022-09-07T19:07:30.181Z,26.95
2022-09-07T19:09:57.668Z,26.94
2022-09-07T19:12:25.141Z,26.96
2022-09-07T19:14:52.539Z,26.96
2022-09-07T19:17:20.027Z,27.02
2022-09-07T19:19:48.545Z,27.03
2022-09-07T19:22:18.886Z,26.99
2022-09-07T19:24:47.170Z,26.96
2022-09-07T19:27:14.570Z,26.93
2022-09-07T19:29:42.837Z,26.89
2022-09-07T19:32:13.487Z,26.92
2022-09-07T19:34:44.502Z,26.89
2022-09-07T19:37:15.101Z,26.88
2022-09-07T19:39:43.307Z,26.86
2022-09-07T19:42:15.497Z,26.93
2022-09-07T19:44:42.784Z,26.90
2022-09-07T19:47:10.777Z,26.90
2022-09-07T19:49:38.169Z,26.88
2022-09-07T19:52:06.270Z,26.86
2022-09-07T19:54:36.720Z,26.86
2022-09-07T19:57:10.746Z,26.83
2022-09-07T19:59:40.171Z,26.82
2022-09-07T20:02:08.740Z,26.77
2022-09-07T20:04:37.611Z,26.70
2022-09-07T20:07:12.371Z,26.68
2022-09-07T20:09:41.953Z,26.65
2022-09-07T20:12:10.532Z,26.64
2022-09-07T20:14:37.960Z,26.65
2022-09-07T20:17:05.639Z,26.65
2022-09-07T20:19:34.506Z,26.70
2022-09-07T20:22:02.008Z,26.70
2022-09-07T20:24:29.781Z,26.71
2022-09-07T20:26:57.839Z,26.66
2022-09-07T20:29:28.194Z,26.64
2022-09-07T20:32:03.125Z,26.63
2022-09-07T20:34:33.899Z,26.62
2022-09-07T20:37:02.878Z,26.64
2022-09-07T20:39:32.745Z,26.67
2022-09-07T20:42:04.457Z,26.74
2022-09-07T20:44:33.378Z,26.81
2022-09-07T20:47:03.119Z,26.90
2022-09-07T20:49:32.050Z,26.95
2022-09-07T20:51:59.336Z,26.96
2022-09-07T20:54:27.966Z,26.97
2022-09-07T20:57:02.105Z,27.00
2022-09-07T20:59:32.715Z,27.03
2022-09-07T21:02:00.381Z,27.01
2022-09-07T21:04:29.166Z,26.99
2022-09-07T21:06:56.633Z,26.97
2022-09-07T21:09:25.283Z,26.96
2022-09-07T21:11:56.757Z,26.98
2022-09-07T21:14:26.784Z,26.99
2022-09-07T21:16:54.078Z,27.00
2022-09-07T21:19:21.510Z,27.01
2022-09-07T21:21:48.643Z,27.03
2022-09-07T21:24:21.571Z,27.04
2022-09-07T21:26:50.442Z,27.05
2022-09-07T21:29:25.912Z,27.03
2022-09-07T21:31:54.835Z,27.05
2022-09-07T21:34:22.822Z,27.03
2022-09-07T21:36:51.567Z,27.01
2022-09-07T21:39:19.409Z,27.00
2022-09-07T21:41:47.971Z,27.02
2022-09-07T21:44:16.365Z,27.03
2022-09-07T21:46:44.484Z,26.99
2022-09-07T21:49:11.753Z,26.98
2022-09-07T21:51:39.089Z,26.96
2022-09-07T21:54:06.403Z,26.97
2022-09-07T21:56:33.804Z,26.96
2022-09-07T21:59:02.765Z,26.94
2022-09-07T22:01:31.711Z,26.92
2022-09-07T22:04:01.471Z,26.90
2022-09-07T22:06:30.054Z,26.89
2022-09-07T22:08:58.518Z,26.84
2022-09-07T22:11:28.244Z,26.82
2022-09-07T22:14:00.778Z,26.78
2022-09-07T22:16:28.314Z,26.76
2022-09-07T22:18:56.053Z,26.76
2022-09-07T22:21:25.239Z,26.74
2022-09-07T22:23:56.113Z,26.73
2022-09-07T22:26:26.804Z,26.72
2022-09-07T22:28:55.032Z,26.71
2022-09-07T22:31:31.859Z,26.69
2022-09-07T22:34:00.852Z,26.68
2022-09-07T22:36:34.211Z,26.64
2022-09-07T22:39:05.280Z,26.63
2022-09-07T22:41:35.125Z,26.60
2022-09-07T22:44:02.509Z,26.58
2022-09-07T22:46:31.872Z,26.56
2022-09-07T22:48:59.562Z,26.60
2022-09-07T22:51:27.728Z,26.59
2022-09-07T22:53:56.223Z,26.55
2022-09-07T22:56:26.229Z,26.55
2022-09-07T22:58:59.351Z,26.54
2022-09-07T23:01:28.124Z,26.52
2022-09-07T23:03:55.860Z,26.48
2022-09-07T23:06:27.610Z,26.49
2022-09-07T23:08:57.090Z,26.44
2022-09-07T23:11:25.399Z,26.43
2022-09-07T23:13:54.304Z,26.43
2022-09-07T23:16:22.389Z,26.41
2022-09-07T23:18:49.983Z,26.42
2022-09-07T23:21:18.014Z,26.41
2022-09-07T23:23:52.665Z,26.38
2022-09-07T23:26:21.680Z,26.33
2022-09-07T23:28:56.624Z,26.28
2022-09-07T23:31:25.317Z,26.28
2022-09-07T23:33:52.603Z,26.26
2022-09-07T23:36:20.389Z,26.26
2022-09-07T23:38:47.948Z,26.25
2022-09-07T23:41:17.529Z,26.23
2022-09-07T23:43:44.906Z,26.22
2022-09-07T23:46:13.967Z,26.24
2022-09-07T23:48:44.337Z,26.20
2022-09-07T23:51:12.637Z,26.13
2022-09-07T23:53:40.471Z,26.17
2022-09-07T23:56:08.122Z,26.19
2022-09-07T23:58:35.232Z,26.18
